This is the latest recevied weather packets stored in our database for station/object JE3XST-13. If no packets are shown the sender has not sent any weather packets the latest 10 day(s).
| Time | Temp. | Humidity | Pressure | Rain* | Wind** | Luminosity | Snow |
|---|---|---|---|---|---|---|---|
| 1787493863 | 26.11° C | 87% | 1014.7 hPa | 0 mm | - | - | - |
| 1787492063 | 26.11° C | 87% | 1014.7 hPa | 0 mm | - | - | - |
| 1787490261 | 26.67° C | 88% | 1014.6 hPa | 0 mm | - | - | - |
| 1787488461 | 26.67° C | 87% | 1014.6 hPa | 0 mm | - | - | - |
| 1787486659 | 26.67° C | 87% | 1014.5 hPa | 0 mm | - | - | - |
| 1787484859 | 26.67° C | 87% | 1014.5 hPa | 0 mm | - | - | - |
| 1787483057 | 26.11° C | 87% | 1013.9 hPa | 0 mm | - | - | - |
| 1787481258 | 26.11° C | 89% | 1013.3 hPa | 0 mm | - | - | - |
| 1787479456 | 26.67° C | 89% | 1013 hPa | 0 mm | - | - | - |
| 1787478708 | 26.67° C | 87% | 1012.9 hPa | 0 mm | - | - | - |
| 1787476907 | 26.67° C | 84% | 1012.8 hPa | 0.51 mm | - | - | - |
| 1787475107 | 26.67° C | 85% | 1012.5 hPa | 1.27 mm | - | - | - |
| 1787473306 | 27.22° C | 85% | 1012.5 hPa | 1.27 mm | - | - | - |
| 1787471504 | 30° C | 76% | 1012 hPa | 0.51 mm | - | - | - |
| 1787469702 | 33.89° C | 59% | 1011.6 hPa | 0 mm | - | - | - |
| 1787467901 | 34.44° C | 58% | 1011.2 hPa | 0 mm | - | - | - |
| 1787467448 | 35.56° C | 55% | 1011.2 hPa | 0 mm | - | - | - |
| 1787465647 | 37.78° C | 47% | 1011.3 hPa | 0 mm | - | - | - |
| 1787463847 | 37.22° C | 48% | 1011.6 hPa | 0 mm | - | - | - |
| 1787462047 | 36.67° C | 49% | 1012 hPa | 0 mm | - | - | - |
| 1787460248 | 36.11° C | 52% | 1012.3 hPa | 0 mm | - | - | - |
| 1787458447 | 35.56° C | 53% | 1012.4 hPa | 0 mm | - | - | - |
| 1787456647 | 36.11° C | 52% | 1012.7 hPa | 0 mm | - | - | - |
| 1787454846 | 35.56° C | 53% | 1013 hPa | 0 mm | - | - | - |
| 1787453046 | 34.44° C | 56% | 1013.3 hPa | 0 mm | - | - | - |
* Rain latest hour (hover to see other rain measurements)
** Current wind speed in m/s (hover to see current wind gust speed)